Česky Dansk Deutsch English Español Suomi Français Magyar Italiano Nederlands norsk Polski Português svenska Türkçe

 

Het Weer

Savannakhet (Laos)

13:00, 16 juli 2016 (GMT)

NWNNE
WE
SWSSE
Home            
Savannakhet Mukdahan Sakon Nakhon Thakhek Nakhon Phanom Roi Et Ubon Ratchathani Pakse Khon Kaen Saravane Udon Thani Nong Khai Vinh Vientiane Chaiyaphum Attopeu Hue Loei Nakhon Ratchasima Siemreap Da Nang Sayaboury Prachin Buri

Om een weerknop op uw website of weblog te plaatsen, copieer onderstaande code en plak die in uw pagina. In het eerste vakje staat HTML-code, in het tweede vakje UBB-code.


Add to Google

Details

Wind speed:1 bf, 2 kn, 1.0 m/s, 2.3 miles/h, 3.7 km/h
Wind direction:E, 090°
Visibility: 2000 m, 2.0 km, 6562 ft, 1.2 miles
Clouds:Aufgelockert bewölkt at 2000 ft, 610 m
Durchbrochene Bewölkung at 10000 ft, 3048 m
Het Weer:moderate mist
Temperature:32°C, 90°F
Gefühlte Temperatur:41°C, 106°F
Dew-point:26°C, 79°F
Atmospheric pressure:1009 hPa, 756.8 mmHg, 29.80 inHg, 0.996 atm
Relative humidity:70.7 %
METAR:VLSK 161300Z 09002KT 2000 BR SCT020 BKN100 32/26 Q1009 NOSIG

Snelkoppelingen

Actuele weersinformatie van de hele wereld. Voeg locaties toe met het plus (+) symbool. Deze snelkoppelingen kunnen worden toegevoegd aan Google.

Lid van de Technetium groep

website free tracking
StatCounter NetStat W3C Validator

08-08-2020 05:43:54
astro.technetium.be money.technetium.be phote.technetium.be tafeltennistafel.technetium.be www.ligfiets.net